Flight Track Log - Related Links

Times and Time Zones

All times are in EDT time to prevent confusion due to time zone crossing. See the UAL5887 flight status page for this flight to view local times or setup timezone preferences in your user account.

Time Position Orientation Groundspeed Altitude Reporting Facility
EDT Latitude Longitude Course Direction KTS MPH feet Rate Location/Type
Wed 10:43:16 AM 42.0000 -87.9333 37° Northeast 164 189 2,200  Level Chicago TRACON
Wed 10:44:17 AM 42.0500 -87.8833 37° Northeast 218 251 3,900 1,488 Climbing Chicago TRACON
Wed 10:45:17 AM 42.1000 -87.8333 37° Northeast 251 289 5,200 1,856 Climbing Chicago TRACON
Wed 10:45:54 AM 42.1297 -87.7878 49° Northeast 251 289 6,900 2,424 Climbing Chicago Center
Wed 10:46:56 AM 42.1633 -87.7019 62° Northeast 275 316 9,200 2,177 Climbing Chicago Center
Wed 10:47:58 AM 42.1831 -87.5992 75° East 283 326 11,400 1,984 Climbing Chicago Center
Wed 10:49:00 AM 42.2028 -87.4897 76° East 297 342 13,300 1,258 Climbing Chicago Center
Wed 10:50:02 AM 42.2242 -87.3681 77° East 330 380 14,000 726 Climbing Chicago Center
Wed 10:51:04 AM 42.2492 -87.2314 76° East 372 428 14,800 1,016 Climbing Chicago Center
Wed 10:52:06 AM 42.2786 -87.0594 77° East 390 449 16,100 1,113 Climbing Chicago Center
Wed 10:53:08 AM 42.2850 -86.9106 87° East 398 458 17,100 976 Climbing Chicago Center
Wed 10:54:09 AM 42.2908 -86.7603 87° East 403 464 18,100 1,024 Climbing Chicago Center
Wed 10:55:11 AM 42.2964 -86.6125 87° East 414 476 19,200 1,113 Climbing Chicago Center
Wed 10:56:13 AM 42.3039 -86.4283 87° East 428 493 20,400 1,113 Climbing Chicago Center
Wed 10:57:15 AM 42.3100 -86.2653 87° East 436 502 21,500 1,016 Climbing Chicago Center
Wed 10:58:17 AM 42.3150 -86.0981 88° East 447 514 22,500 1,024 Climbing Chicago Center
Wed 10:59:18 AM 42.3128 -85.9308 91° East 450 518 23,600 1,056 Climbing Chicago Center
Wed 11:00:22 AM 42.3114 -85.7614 91° East 455 524 24,700 1,143 Climbing Chicago Center
Wed 11:01:24 AM 42.3081 -85.5558 91° East 459 528 26,000 1,171 Climbing Chicago Center
Wed 11:02:25 AM 42.3058 -85.3844 91° East 460 529 27,100 1,073 Climbing Chicago Center
Wed 11:03:27 AM 42.3033 -85.2144 91° East 457 526 28,200 1,113 Climbing Chicago Center
Wed 11:04:29 AM 42.3006 -85.0478 91° East 450 518 29,400 1,145 Climbing Chicago Center
Wed 11:05:38 AM 42.3078 -84.8542 87° East 446 513 30,700 1,163 Climbing Cleveland Center
Wed 11:06:38 AM 42.3433 -84.6794 75° East 456 525 31,900 1,250 Climbing Cleveland Center
Wed 11:07:38 AM 42.3814 -84.4878 75° East 472 543 33,200 1,250 Climbing Cleveland Center
Wed 11:08:38 AM 42.4183 -84.3158 74° East 472 543 34,400 900 Climbing Cleveland Center
Wed 11:09:38 AM 42.4553 -84.1406 74° East 472 543 35,000 300 Climbing Cleveland Center
Wed 11:10:38 AM 42.4939 -83.9625 74° East 472 543 35,000 50 Level Cleveland Center
Wed 11:11:38 AM 42.5328 -83.7672 75° East 500 575 35,100 500 Climbing Cleveland Center
Wed 11:12:38 AM 42.5667 -83.5997 75° East 511 588 36,000 950 Climbing Cleveland Center
Wed 11:13:38 AM 42.6047 -83.4125 75° East 511 588 37,000 500 Climbing Cleveland Center
Wed 11:14:38 AM 42.6403 -83.2250 75° East 511 588 37,000  Level Cleveland Center
Wed 11:15:38 AM 42.6822 -83.0319 73° East 511 588 37,000  Level Cleveland Center
Wed 11:16:38 AM 42.7194 -82.8356 75° East 518 596 37,000  Level Cleveland Center
Wed 11:17:38 AM 42.7586 -82.6389 75° East 530 610 37,000  Level Cleveland Center
Wed 11:18:38 AM 42.7953 -82.4478 75° East 525 604 37,000  Level Cleveland Center
Wed 11:19:38 AM 42.8339 -82.2422 76° East 533 613 37,000  Level Cleveland Center
Wed 11:20:38 AM 42.8719 -82.0478 75° East 533 613 37,000  Level Cleveland Center
Wed 11:21:35 AM 42.9000 -81.8333 80° East 550 633 37,000  Level Toronto Center
Wed 11:22:35 AM 42.9333 -81.6167 78° East 540 621 37,000  Level Toronto Center
Wed 11:23:35 AM 42.9667 -81.4333 76° East 540 621 37,000  Level Toronto Center
Wed 11:24:35 AM 43.0000 -81.2333 77° East 540 621 37,000  Level Toronto Center
Wed 11:26:35 AM 43.1333 -80.8667 63° Northeast 540 621 37,000  Level Toronto Center
Wed 11:27:35 AM 43.2167 -80.6833 58° Northeast 540 621 37,000  Level Toronto Center
Wed 11:28:35 AM 43.3000 -80.5000 58° Northeast 540 621 37,000  Level Toronto Center
Wed 11:29:35 AM 43.3667 -80.3167 63° Northeast 550 633 37,000  Level Toronto Center
Wed 11:30:35 AM 43.4333 -80.1333 63° Northeast 550 633 37,000  Level Toronto Center
Wed 11:31:35 AM 43.5167 -79.9500 58° Northeast 550 633 37,000  Level Toronto Center
Wed 11:32:35 AM 43.5833 -79.7667 63° Northeast 540 621 37,000  Level Toronto Center
Wed 11:33:35 AM 43.6500 -79.5833 63° Northeast 530 610 37,000  Level Toronto Center
Wed 11:34:35 AM 43.7167 -79.4000 63° Northeast 530 610 37,000  Level Toronto Center
Wed 11:35:35 AM 43.7667 -79.2167 69° East 530 610 37,000  Level Toronto Center
Wed 11:36:35 AM 43.8167 -79.0333 69° East 530 610 37,000  Level Toronto Center
Wed 11:37:35 AM 43.8667 -78.8500 69° East 530 610 37,000  Level Toronto Center
Wed 11:38:35 AM 43.9333 -78.6333 67° East 530 610 37,000  Level Toronto Center
Wed 11:39:35 AM 43.9667 -78.4500 76° East 530 610 37,000  Level Toronto Center
Wed 11:40:35 AM 44.0333 -78.2667 63° Northeast 530 610 37,000  Level Toronto Center
Wed 11:41:35 AM 44.1000 -78.1000 61° Northeast 520 598 37,000  Level Toronto Center
Wed 11:42:35 AM 44.1833 -77.9167 58° Northeast 520 598 37,000 -50 Level Toronto Center
Wed 11:43:35 AM 44.2667 -77.7500 55° Northeast 530 610 36,900 -1,400 Descending Toronto Center
Wed 11:44:35 AM 44.3500 -77.5833 55° Northeast 520 598 34,200 -2,750 Descending Toronto Center
Wed 11:45:35 AM 44.4333 -77.4167 55° Northeast 510 587 31,400 -2,950 Descending Toronto Center
Wed 11:46:35 AM 44.4833 -77.2500 67° East 500 575 28,300 -2,950 Descending Toronto Center
Wed 11:47:35 AM 44.5667 -77.1000 52° Northeast 490 564 25,500 -2,550 Descending Toronto Center
Wed 11:48:35 AM 44.6333 -76.9333 61° Northeast 470 541 23,200 -2,250 Descending Toronto Center
Wed 11:49:35 AM 44.7000 -76.8000 55° Northeast 450 518 21,000 -1,600 Descending Toronto Center
Wed 11:50:35 AM 44.7833 -76.6500 52° Northeast 430 495 20,000 -1,450 Descending Toronto Center
Wed 11:51:35 AM 44.8333 -76.5333 59° Northeast 420 483 18,100 -2,250 Descending Toronto Center
Wed 11:52:35 AM 44.9000 -76.4000 55° Northeast 400 460 15,500 -2,000 Descending Toronto Center
Wed 11:53:35 AM 44.9667 -76.2833 51° Northeast 390 449 14,100 -1,200 Descending Toronto Center
Wed 11:54:35 AM 45.0333 -76.1667 51° Northeast 390 449 13,100 -1,000 Descending Toronto Center
Wed 11:55:35 AM 45.1000 -76.0333 55° Northeast 380 437 12,100 -1,050 Descending Toronto Center
Wed 11:56:35 AM 45.1500 -75.9500 50° Northeast 370 426 11,000 -1,100 Descending Toronto Center
Wed 11:57:35 AM 45.1833 -75.8000 72° East 340 391 9,900 -1,450 Descending Toronto Center
Wed 11:58:35 AM 45.2000 -75.6833 78° East 310 357 8,100 -1,650 Descending Toronto Center
Wed 11:59:35 AM 45.2500 -75.5833 55° Northeast 300 345 6,600 -1,550 Descending Toronto Center
Wed 12:00:35 PM 45.2667 -75.4833 77° East 290 334 5,000 -1,250 Descending Toronto Center
Wed 12:01:35 PM 45.3167 -75.3833 55° Northeast 260 299 4,100 -900 Descending Toronto Center
Wed 12:02:35 PM 45.3667 -75.3333 35° Northeast 240 276 3,200 -550 Descending Toronto Center
Wed 12:03:35 PM 45.4000 -75.4000 305° West 210 242 3,000 -100 Descending Toronto Center
Wed 12:04:35 PM 45.3667 -75.4500 227° Southwest 180 207 3,000 -550 Level Toronto Center
Wed 12:05:35 PM 45.3500 -75.5333 254° West 190 219 1,900 -950 Descending Toronto Center
Wed 12:06:35 PM 45.3333 -75.5833 245° Southwest 150 173 1,100 -800 Descending Toronto Center

Login

Don't have an account? Register now (free) for customized features, flight alerts, and more!